createdAt,value
2023-05-20T00:03:00.544Z,101306.53
2023-05-20T00:08:06.322Z,101301.53
2023-05-20T00:13:10.040Z,101307.44
2023-05-20T00:18:14.596Z,101302.75
2023-05-20T00:23:22.923Z,101299.25
2023-05-20T00:28:26.544Z,101299.13
2023-05-20T00:33:30.199Z,101295.19
2023-05-20T00:38:35.766Z,101286.66
2023-05-20T00:43:39.447Z,101293.28
2023-05-20T00:48:44.973Z,101296.34
2023-05-20T00:53:50.589Z,101301.09
2023-05-20T00:58:54.397Z,101300.63
2023-05-20T01:03:58.126Z,101294.13
2023-05-20T01:09:03.487Z,101290.78
2023-05-20T01:14:09.741Z,101302.06
2023-05-20T01:19:23.038Z,101296.22
2023-05-20T01:24:28.485Z,101292.53
2023-05-20T01:29:32.184Z,101289.59
2023-05-20T01:34:37.918Z,101289.59
2023-05-20T01:39:46.231Z,101296.34
2023-05-20T01:44:50.044Z,101295.25
2023-05-20T01:49:53.687Z,101294.69
2023-05-20T01:54:59.164Z,101301.59
2023-05-20T02:00:02.848Z,101313.25
2023-05-20T02:05:07.087Z,101311.69
2023-05-20T02:10:12.903Z,101315.09
2023-05-20T02:15:16.709Z,101314.97
2023-05-20T02:20:20.405Z,101312.09
2023-05-20T02:25:25.740Z,101311.59
2023-05-20T02:30:28.634Z,101321.28
2023-05-20T02:35:32.435Z,101315.84
2023-05-20T02:40:37.949Z,101314.50
2023-05-20T02:45:42.235Z,101314.41
2023-05-20T02:50:47.334Z,101312.50
2023-05-20T02:55:52.720Z,101312.69
2023-05-20T03:00:55.693Z,101310.44
2023-05-20T03:05:59.409Z,101317.13
2023-05-20T03:11:05.526Z,101320.16
2023-05-20T03:16:10.406Z,101316.31
2023-05-20T03:21:14.102Z,101318.47
2023-05-20T03:26:19.531Z,101335.59
2023-05-20T03:31:23.206Z,101342.16
2023-05-20T03:36:27.518Z,101346.69
2023-05-20T03:41:33.258Z,101367.06
2023-05-20T03:46:36.904Z,101363.31
2023-05-20T03:51:40.601Z,101362.16
2023-05-20T03:56:45.915Z,101363.78
2023-05-20T04:01:49.610Z,101372.19
2023-05-20T04:06:53.258Z,101379.91
2023-05-20T04:11:58.620Z,101378.38
2023-05-20T04:17:03.142Z,101397.97
2023-05-20T04:22:07.080Z,101403.78
2023-05-20T04:27:12.365Z,101407.63
2023-05-20T04:32:18.450Z,101414.72
2023-05-20T04:37:22.242Z,101423.31
2023-05-20T04:42:28.646Z,101430.31
2023-05-20T04:47:32.393Z,101441.44
2023-05-20T04:52:36.084Z,101441.00
2023-05-20T04:57:41.565Z,101424.78
2023-05-20T05:02:45.978Z,101441.41
2023-05-20T05:07:49.705Z,101449.38
2023-05-20T05:12:55.019Z,101447.75
2023-05-20T05:17:59.357Z,101450.47
2023-05-20T05:23:03.018Z,101444.75
2023-05-20T05:28:08.363Z,101447.47
2023-05-20T05:33:12.128Z,101444.81
2023-05-20T05:38:15.862Z,101464.00
2023-05-20T05:43:21.228Z,101468.69
2023-05-20T05:48:24.942Z,101461.06
2023-05-20T05:53:28.848Z,101462.56
2023-05-20T05:58:34.189Z,101460.34
2023-05-20T06:03:38.065Z,101444.38
2023-05-20T06:08:41.772Z,101449.19
2023-05-20T06:13:48.057Z,101452.50
2023-05-20T06:18:51.750Z,101450.81
2023-05-20T06:23:55.404Z,101448.09
2023-05-20T06:29:00.738Z,101460.59
2023-05-20T06:34:04.413Z,101460.00
2023-05-20T06:39:08.084Z,101461.72
2023-05-20T06:44:13.386Z,101459.53
2023-05-20T06:49:17.070Z,101443.03
2023-05-20T06:54:20.731Z,101434.50
2023-05-20T06:59:26.217Z,101422.34
2023-05-20T07:04:29.978Z,101413.44
2023-05-20T07:09:33.633Z,101436.41
2023-05-20T07:14:40.002Z,101442.91
2023-05-20T07:19:43.652Z,101440.00
2023-05-20T07:24:49.447Z,101446.78
2023-05-20T07:29:55.504Z,101444.25
2023-05-20T07:34:59.155Z,101436.47
2023-05-20T07:40:03.099Z,101434.25
2023-05-20T07:45:09.698Z,101429.06
2023-05-20T07:50:13.426Z,101433.44
2023-05-20T07:55:17.197Z,101431.59
2023-05-20T08:00:23.089Z,101431.03
2023-05-20T08:05:26.071Z,101432.53
2023-05-20T08:10:29.772Z,101428.28
2023-05-20T08:15:36.457Z,101444.75
2023-05-20T08:20:40.179Z,101434.44
2023-05-20T08:25:43.869Z,101443.06
2023-05-20T08:30:49.247Z,101437.28
2023-05-20T08:35:52.997Z,101447.69
2023-05-20T08:40:58.009Z,101449.47
2023-05-20T08:46:03.948Z,101462.69
2023-05-20T08:51:10.941Z,101459.84
2023-05-20T08:56:14.879Z,101456.47
2023-05-20T09:01:20.381Z,101463.72
2023-05-20T09:06:24.080Z,101449.88
2023-05-20T09:11:27.807Z,101440.38
2023-05-20T09:16:33.263Z,101440.53
2023-05-20T09:21:37.027Z,101441.81
2023-05-20T09:26:40.682Z,101448.22
2023-05-20T09:31:46.093Z,101455.09
2023-05-20T09:36:52.123Z,101443.69
2023-05-20T09:42:03.747Z,101451.19
2023-05-20T09:47:10.512Z,101437.75
2023-05-20T09:52:16.091Z,101438.47
2023-05-20T09:57:19.928Z,101449.72
2023-05-20T10:02:25.345Z,101449.81
2023-05-20T10:08:09.748Z,101441.88
2023-05-20T10:13:24.531Z,101441.81
2023-05-20T10:18:43.284Z,101440.13
2023-05-20T10:23:47.440Z,101441.16
2023-05-20T10:28:51.208Z,101443.75
2023-05-20T10:33:59.692Z,101438.34
2023-05-20T10:39:04.919Z,101444.38
2023-05-20T10:44:08.605Z,101451.31
2023-05-20T10:49:25.239Z,101451.13
2023-05-20T10:54:36.056Z,101457.31
2023-05-20T10:59:39.898Z,101445.94
2023-05-20T11:04:45.939Z,101454.72
2023-05-20T11:09:50.655Z,101462.63
2023-05-20T11:14:54.678Z,101460.34
2023-05-20T11:20:00.194Z,101462.47
2023-05-20T11:25:07.139Z,101457.53
2023-05-20T11:30:12.673Z,101461.16
2023-05-20T11:35:25.823Z,101462.97
2023-05-20T11:40:38.947Z,101462.94
2023-05-20T11:45:47.505Z,101464.47
2023-05-20T11:50:55.609Z,101469.50
2023-05-20T11:56:00.873Z,101489.50
2023-05-20T12:01:13.998Z,101477.94
2023-05-20T12:06:26.887Z,101490.19
2023-05-20T12:11:30.547Z,101483.16
2023-05-20T12:16:35.436Z,101485.69
2023-05-20T12:21:40.810Z,101488.28
2023-05-20T12:26:44.508Z,101490.72
2023-05-20T12:31:48.566Z,101479.47
2023-05-20T12:36:53.999Z,101483.13
2023-05-20T12:41:57.702Z,101484.06
2023-05-20T12:47:01.636Z,101499.66
2023-05-20T12:52:11.894Z,101497.03
2023-05-20T12:57:23.132Z,101501.53
2023-05-20T13:02:26.857Z,101503.31
2023-05-20T13:07:32.298Z,101511.03
2023-05-20T13:12:36.057Z,101515.41
2023-05-20T13:17:39.858Z,101517.00
2023-05-20T13:22:45.161Z,101515.84
2023-05-20T13:27:48.860Z,101516.81
2023-05-20T13:32:52.971Z,101517.72
2023-05-20T13:37:59.291Z,101512.47
2023-05-20T13:43:02.950Z,101523.03
2023-05-20T13:48:07.082Z,101534.41
2023-05-20T13:53:12.430Z,101537.00
2023-05-20T13:58:16.135Z,101549.00
2023-05-20T14:03:19.986Z,101551.22
2023-05-20T14:08:25.421Z,101557.78
2023-05-20T14:13:29.085Z,101552.16
2023-05-20T14:18:32.775Z,101557.88
2023-05-20T14:23:38.230Z,101560.63
2023-05-20T14:28:41.859Z,101568.00
2023-05-20T14:33:45.526Z,101566.44
2023-05-20T14:38:50.895Z,101566.63
2023-05-20T14:43:54.535Z,101579.53
2023-05-20T14:48:58.864Z,101579.53
2023-05-20T14:54:04.231Z,101587.34
2023-05-20T14:59:08.063Z,101594.13
2023-05-20T15:04:11.838Z,101588.88
2023-05-20T15:09:17.225Z,101601.56
2023-05-20T15:14:20.970Z,101605.19
2023-05-20T15:19:24.678Z,101604.94
2023-05-20T15:24:30.137Z,101609.03
2023-05-20T15:29:33.811Z,101611.88
2023-05-20T15:34:37.507Z,101604.66
2023-05-20T15:39:42.818Z,101606.81
2023-05-20T15:44:46.759Z,101613.56
2023-05-20T15:49:50.448Z,101620.59
2023-05-20T15:54:55.957Z,101627.88
2023-05-20T15:59:59.544Z,101627.09
2023-05-20T16:05:03.210Z,101627.75
2023-05-20T16:10:09.930Z,101637.41
2023-05-20T16:15:14.038Z,101635.25
2023-05-20T16:20:17.662Z,101649.00
2023-05-20T16:25:23.053Z,101632.78
2023-05-20T16:30:26.855Z,101640.25
2023-05-20T16:35:30.507Z,101642.41
2023-05-20T16:40:36.814Z,101636.53
2023-05-20T16:45:40.503Z,101643.53
2023-05-20T16:50:44.228Z,101641.53
2023-05-20T16:55:49.573Z,101642.66
2023-05-20T17:00:52.723Z,101636.81
2023-05-20T17:05:56.573Z,101621.81
2023-05-20T17:11:03.581Z,101631.22
2023-05-20T17:16:09.881Z,101620.84
2023-05-20T17:21:15.534Z,101621.56
2023-05-20T17:26:21.066Z,101624.50
2023-05-20T17:31:24.683Z,101636.59
2023-05-20T17:36:29.292Z,101632.91
2023-05-20T17:41:34.574Z,101631.94
2023-05-20T17:46:38.394Z,101623.34
2023-05-20T17:51:42.144Z,101627.59
2023-05-20T17:56:48.920Z,101628.56
2023-05-20T18:01:52.815Z,101628.78
2023-05-20T18:06:56.570Z,101627.50
2023-05-20T18:12:02.941Z,101621.06
2023-05-20T18:17:06.781Z,101625.50
2023-05-20T18:22:10.442Z,101625.44
2023-05-20T18:27:15.749Z,101627.94
2023-05-20T18:32:19.604Z,101635.34
2023-05-20T18:37:23.264Z,101637.63
2023-05-20T18:42:28.735Z,101634.41
2023-05-20T18:47:32.933Z,101628.03
2023-05-20T18:52:36.679Z,101628.00
2023-05-20T18:57:41.998Z,101627.75
2023-05-20T19:02:45.979Z,101615.81
2023-05-20T19:07:49.649Z,101621.84
2023-05-20T19:12:54.947Z,101629.38
2023-05-20T19:17:58.704Z,101632.28
2023-05-20T19:23:02.390Z,101624.59
2023-05-20T19:28:07.983Z,101619.31
2023-05-20T19:33:11.636Z,101620.41
2023-05-20T19:38:15.449Z,101620.56
2023-05-20T19:43:20.753Z,101612.31
2023-05-20T19:48:24.393Z,101604.91
2023-05-20T19:53:28.044Z,101601.22
2023-05-20T19:58:34.294Z,101600.03
2023-05-20T20:03:37.966Z,101603.78
2023-05-20T20:08:41.697Z,101600.47
2023-05-20T20:13:47.031Z,101591.72
2023-05-20T20:18:50.686Z,101580.88
2023-05-20T20:23:54.380Z,101579.75
2023-05-20T20:29:00.608Z,101582.25
2023-05-20T20:34:04.244Z,101579.41
2023-05-20T20:39:07.964Z,101578.34
2023-05-20T20:44:13.419Z,101581.75
2023-05-20T20:49:17.167Z,101573.44
2023-05-20T20:54:20.886Z,101579.84
2023-05-20T20:59:26.402Z,101572.38
2023-05-20T21:04:30.395Z,101573.22
2023-05-20T21:09:34.091Z,101564.47
2023-05-20T21:14:39.424Z,101563.25
2023-05-20T21:19:43.097Z,101572.44
2023-05-20T21:24:46.754Z,101561.66
2023-05-20T21:29:52.092Z,101569.34
2023-05-20T21:34:56.856Z,101576.41
2023-05-20T21:40:02.045Z,101571.84
2023-05-20T21:45:08.738Z,101560.31
2023-05-20T21:50:13.268Z,101558.59
2023-05-20T21:55:17.072Z,101560.50
2023-05-20T22:00:22.405Z,101550.88
2023-05-20T22:05:28.644Z,101546.72
2023-05-20T22:10:32.330Z,101534.44
2023-05-20T22:15:37.872Z,101535.22
2023-05-20T22:20:41.745Z,101529.28
2023-05-20T22:25:45.519Z,101529.47
2023-05-20T22:30:50.975Z,101528.50
2023-05-20T22:35:54.939Z,101526.50
2023-05-20T22:40:58.680Z,101525.53
2023-05-20T22:46:04.251Z,101516.72
2023-05-20T22:51:08.088Z,101509.78
2023-05-20T22:56:11.717Z,101501.25
2023-05-20T23:01:17.111Z,101489.00
2023-05-20T23:06:20.811Z,101487.06
2023-05-20T23:11:24.498Z,101485.16
2023-05-20T23:16:29.918Z,101475.59
2023-05-20T23:21:33.691Z,101466.13
2023-05-20T23:26:37.349Z,101465.66
2023-05-20T23:31:42.690Z,101454.09
2023-05-20T23:36:46.330Z,101454.38
2023-05-20T23:41:49.919Z,101452.84
2023-05-20T23:46:55.263Z,101443.53
2023-05-20T23:51:58.940Z,101451.16
2023-05-20T23:57:02.675Z,101446.94
